Time;durP1;ratioP1;P1;durP2;ratioP2;P2;SDS_P1;SDS_P2;PMS_P1;PMS_P2;Temp;Humidity;BMP_temperature;BMP_pressure;BME280_temperature;BME280_humidity;BME280_pressure;Samples;Min_cycle;Max_cycle;Signal;HPM_P1;HPM_P2
2023/01/29 00:01:16;;;;;;;116.63;43.58;;;;;;;-4.76;100.00;102779.28;4960389;28;20031;-76
2023/01/29 00:03:41;;;;;;;116.72;43.40;;;;;;;-4.76;100.00;102779.28;4965203;28;20423;-76
2023/01/29 00:06:07;;;;;;;116.45;43.60;;;;;;;-4.76;100.00;102779.28;4966862;28;20058;-76
2023/01/29 00:08:37;;;;;;;115.25;42.08;;;;;;;-4.76;100.00;102783.50;4972963;28;20042;-77
2023/01/29 00:11:07;;;;;;;123.60;44.00;;;;;;;-4.77;100.00;102781.81;4963313;28;20397;-77
2023/01/29 00:13:33;;;;;;;114.28;42.08;;;;;;;-4.78;100.00;102780.16;4983920;28;20034;-77
2023/01/29 00:16:00;;;;;;;114.57;42.22;;;;;;;-4.77;100.00;102776.75;4961644;28;20034;-76
2023/01/29 00:18:27;;;;;;;114.03;41.88;;;;;;;-4.80;100.00;102772.56;4961626;28;20050;-77
2023/01/29 00:20:53;;;;;;;117.82;40.90;;;;;;;-4.82;100.00;102779.31;4959519;28;20558;-77
2023/01/29 00:23:19;;;;;;;105.68;41.15;;;;;;;-4.85;100.00;102773.44;4947552;28;20043;-77
2023/01/29 00:25:45;;;;;;;99.90;40.20;;;;;;;-4.89;100.00;102767.53;4959638;28;20027;-77
2023/01/29 00:28:11;;;;;;;107.93;41.92;;;;;;;-4.91;100.00;102771.78;4957146;28;20599;-76
2023/01/29 00:30:38;;;;;;;110.95;40.28;;;;;;;-4.92;100.00;102768.38;4963788;28;20034;-75
2023/01/29 00:33:04;;;;;;;106.72;41.50;;;;;;;-4.93;100.00;102766.72;4966436;28;20039;-77
2023/01/29 00:35:30;;;;;;;108.65;40.40;;;;;;;-4.94;100.00;102759.13;4968888;28;20098;-77
2023/01/29 00:37:56;;;;;;;104.38;38.55;;;;;;;-4.95;100.00;102760.81;4974439;28;20053;-76
2023/01/29 00:40:22;;;;;;;95.65;37.58;;;;;;;-4.95;100.00;102760.81;4968381;28;20034;-77
2023/01/29 00:45:32;;;;;;;110.57;39.60;;;;;;;-4.98;100.00;102758.31;4970356;28;20507;-77
2023/01/29 00:47:58;;;;;;;105.05;39.03;;;;;;;-4.97;100.00;102749.88;4956337;28;20040;-77
2023/01/29 00:50:23;;;;;;;99.13;38.35;;;;;;;-4.98;100.00;102750.72;4941618;28;20111;-76
2023/01/29 00:52:50;;;;;;;103.25;37.55;;;;;;;-4.97;100.00;102754.94;4939349;28;20035;-77
2023/01/29 00:55:16;;;;;;;105.18;38.35;;;;;;;-4.97;100.00;102757.47;4957801;28;20055;-77
2023/01/29 00:57:42;;;;;;;102.03;39.00;;;;;;;-4.98;100.00;102763.38;4953542;28;20043;-76
2023/01/29 01:00:12;;;;;;;102.63;36.20;;;;;;;-4.99;100.00;102758.31;4964824;28;20061;-76
2023/01/29 01:05:22;;;;;;;96.00;35.85;;;;;;;-5.02;100.00;102760.88;4962430;28;20392;-77
2023/01/29 01:07:50;;;;;;;95.53;36.67;;;;;;;-5.03;100.00;102761.69;4968901;28;20044;-77
2023/01/29 01:10:21;;;;;;;109.47;38.90;;;;;;;-5.06;100.00;102764.28;4956310;28;20039;-77
2023/01/29 01:12:57;;;;;;;106.45;39.97;;;;;;;-5.09;100.00;102767.63;4946228;28;20050;-76
2023/01/29 01:15:26;;;;;;;107.05;40.83;;;;;;;-5.12;100.00;102765.13;4945413;28;20040;-76
2023/01/29 01:17:56;;;;;;;107.70;39.45;;;;;;;-5.13;100.00;102765.97;4947371;28;20407;-77
2023/01/29 01:20:23;;;;;;;112.93;43.53;;;;;;;-5.15;100.00;102767.66;4943143;28;20476;-77
2023/01/29 01:22:50;;;;;;;112.20;42.70;;;;;;;-5.15;100.00;102762.59;4974382;28;20030;-77
2023/01/29 01:25:17;;;;;;;107.82;42.33;;;;;;;-5.17;100.00;102765.16;4967868;28;20393;-77
2023/01/29 01:27:43;;;;;;;110.03;41.15;;;;;;;-5.18;100.00;102749.97;4964345;28;20058;-77
2023/01/29 01:30:14;;;;;;;104.72;41.95;;;;;;;-5.19;100.00;102739.00;4974469;28;20506;-77
2023/01/29 01:32:40;;;;;;;106.60;40.88;;;;;;;-5.21;100.00;102739.88;4969976;28;20118;-77
2023/01/29 01:35:07;;;;;;;110.13;39.17;;;;;;;-5.23;100.00;102726.41;4955691;28;20570;-77
2023/01/29 01:37:36;;;;;;;107.97;38.90;;;;;;;-5.23;100.00;102734.00;4971352;28;20039;-77
2023/01/29 01:40:04;;;;;;;98.15;38.42;;;;;;;-5.24;100.00;102727.22;4969873;28;20396;-77
2023/01/29 01:42:30;;;;;;;99.88;37.13;;;;;;;-5.22;100.00;102730.59;4949422;28;20035;-77
2023/01/29 01:45:06;;;;;;;92.95;35.50;;;;;;;-5.23;100.00;102734.81;4968001;28;20041;-77
2023/01/29 01:47:49;;;;;;;95.13;36.28;;;;;;;-5.25;100.00;102723.03;4973662;28;20050;-76
2023/01/29 01:50:23;;;;;;;89.53;33.90;;;;;;;-5.24;100.00;102732.28;4974748;28;20436;-77
2023/01/29 01:52:54;;;;;;;84.28;32.60;;;;;;;-5.24;100.00;102729.75;4968642;28;20026;-77
2023/01/29 01:55:25;;;;;;;83.95;31.65;;;;;;;-5.25;100.00;102723.88;4968865;28;20776;-77
2023/01/29 01:57:56;;;;;;;87.32;31.73;;;;;;;-5.24;100.00;102729.75;4985597;28;20037;-77
2023/01/29 02:00:25;;;;;;;82.07;31.83;;;;;;;-5.25;100.00;102723.03;4953073;28;20113;-76
2023/01/29 02:11:20;;;;;;;89.70;31.42;;;;;;;-5.30;100.00;102728.94;4966806;28;20135;-75
2023/01/29 02:13:52;;;;;;;84.85;31.40;;;;;;;-5.31;100.00;102726.44;4966344;28;20046;-77
2023/01/29 02:16:23;;;;;;;77.10;26.55;;;;;;;-5.32;100.00;102738.22;4971777;28;20042;-77
2023/01/29 02:18:50;;;;;;;80.72;29.35;;;;;;;-5.33;100.00;102723.91;4964901;28;20047;-76
2023/01/29 02:21:33;;;;;;;79.32;27.80;;;;;;;-5.33;100.00;102731.50;4962235;28;20027;-77
2023/01/29 02:24:01;;;;;;;74.22;27.98;;;;;;;-5.35;100.00;102753.44;4963557;28;20043;-76
2023/01/29 02:26:37;;;;;;;85.55;28.90;;;;;;;-5.35;100.00;102760.16;4961203;28;20124;-76
2023/01/29 02:29:21;;;;;;;80.82;29.67;;;;;;;-5.36;100.00;102756.78;4963866;28;20043;-77
2023/01/29 02:31:55;;;;;;;79.45;29.70;;;;;;;-5.37;100.00;102770.31;4971517;28;20050;-77
2023/01/29 02:37:26;;;;;;;80.10;29.35;;;;;;;-5.39;100.00;102778.72;4980859;28;20042;-77
2023/01/29 02:40:18;;;;;;;80.35;29.27;;;;;;;-5.38;100.00;102772.81;4964486;28;20530;-77
2023/01/29 02:42:51;;;;;;;75.47;27.52;;;;;;;-5.37;100.00;102771.97;4961238;28;20038;-77
2023/01/29 02:45:28;;;;;;;74.70;26.70;;;;;;;-5.37;100.00;102772.84;4967387;28;20038;-75
2023/01/29 02:47:59;;;;;;;76.22;28.95;;;;;;;-5.37;100.00;102764.38;4936646;28;20111;-75
2023/01/29 02:50:37;;;;;;;77.40;29.25;;;;;;;-5.37;100.00;102761.84;4932404;29;20058;-76
2023/01/29 02:53:12;;;;;;;81.10;28.77;;;;;;;-5.36;100.00;102764.38;4927612;29;20035;-77
2023/01/29 02:55:44;;;;;;;83.32;28.98;;;;;;;-5.35;100.00;102755.97;4928838;28;20035;-76
2023/01/29 02:58:22;;;;;;;77.57;28.60;;;;;;;-5.32;100.00;102744.97;4926161;29;20070;-77
2023/01/29 03:00:49;;;;;;;84.30;29.38;;;;;;;-5.33;100.00;102746.69;4936070;28;20031;-77
2023/01/29 03:03:27;;;;;;;88.30;29.30;;;;;;;-5.29;100.00;102739.91;4966652;28;20050;-76
2023/01/29 03:05:53;;;;;;;82.82;29.88;;;;;;;-5.29;100.00;102738.22;4949136;28;20558;-77
2023/01/29 03:08:35;;;;;;;80.05;28.95;;;;;;;-5.29;100.00;102735.69;4952315;28;20444;-76
2023/01/29 03:11:05;;;;;;;83.72;30.10;;;;;;;-5.28;100.00;102739.88;4959925;28;20119;-77
2023/01/29 03:13:38;;;;;;;79.97;29.58;;;;;;;-5.30;100.00;102736.53;4952668;28;20039;-77
2023/01/29 03:16:23;;;;;;;79.35;29.02;;;;;;;-5.31;100.00;102742.44;4930989;29;20035;-77
2023/01/29 03:19:00;;;;;;;84.07;28.52;;;;;;;-5.32;100.00;102760.16;4970516;28;20100;-76
2023/01/29 03:21:58;;;;;;;83.80;29.98;;;;;;;-5.35;100.00;102766.06;4946151;28;20032;-77
2023/01/29 03:33:31;;;;;;;81.57;29.42;;;;;;;-5.35;100.00;102745.84;4965700;28;20039;-77
2023/01/29 03:36:05;;;;;;;85.38;31.42;;;;;;;-5.34;100.00;102747.50;4969095;28;20034;-76
2023/01/29 03:38:31;;;;;;;84.43;29.80;;;;;;;-5.30;100.00;102754.22;4977067;28;20234;-77
2023/01/29 03:41:18;;;;;;;85.55;30.92;;;;;;;-5.28;100.00;102751.69;4953562;28;20272;-77
2023/01/29 03:44:11;;;;;;;84.10;29.77;;;;;;;-5.25;100.00;102745.81;4966824;28;20101;-77
2023/01/29 03:46:46;;;;;;;86.43;30.87;;;;;;;-5.23;100.00;102751.69;4971841;28;20046;-77
2023/01/29 03:49:44;;;;;;;86.05;30.38;;;;;;;-5.25;100.00;102751.69;4962320;28;20561;-77
2023/01/29 03:52:24;;;;;;;88.38;30.67;;;;;;;-5.21;100.00;102750.00;4950915;28;20030;-77
2023/01/29 03:55:00;;;;;;;89.25;33.17;;;;;;;-5.14;100.00;102734.78;4931701;28;20039;-77
2023/01/29 03:57:39;;;;;;;83.95;29.73;;;;;;;-5.17;100.00;102734.78;4949369;28;20035;-75
2023/01/29 04:00:12;;;;;;;88.78;32.00;;;;;;;-5.15;100.00;102743.19;4948981;28;20125;-77
2023/01/29 04:03:34;;;;;;;93.82;31.75;;;;;;;-5.14;100.00;102727.19;4944328;28;20530;-75
2023/01/29 04:06:11;;;;;;;85.88;32.10;;;;;;;-5.05;100.00;102730.50;4896545;29;20071;-77
2023/01/29 04:09:06;;;;;;;91.07;32.58;;;;;;;-5.02;100.00;102733.03;4892241;29;20051;-77
2023/01/29 04:11:37;;;;;;;86.47;30.35;;;;;;;-5.07;100.00;102725.44;4930216;28;20134;-77
2023/01/29 04:14:03;;;;;;;92.22;31.17;;;;;;;-5.08;100.00;102728.84;4966240;28;20066;-75
2023/01/29 04:16:35;;;;;;;87.97;31.60;;;;;;;-5.08;100.00;102721.25;4967302;28;20700;-77
2023/01/29 04:19:18;;;;;;;93.80;31.13;;;;;;;-5.09;100.00;102725.44;4932690;29;20235;-77
2023/01/29 04:21:46;;;;;;;94.68;32.55;;;;;;;-5.09;100.00;102719.56;4946099;28;20471;-77
2023/01/29 04:24:12;;;;;;;94.90;31.25;;;;;;;-5.11;100.00;102711.97;4939982;28;20677;-77
2023/01/29 04:26:53;;;;;;;95.07;32.50;;;;;;;-5.12;100.00;102712.84;4943783;28;20027;-77
2023/01/29 04:29:47;;;;;;;93.90;32.50;;;;;;;-5.12;100.00;102710.31;4941041;28;20163;-77
2023/01/29 04:32:51;;;;;;;89.93;31.42;;;;;;;-5.15;100.00;102707.78;4931857;28;20038;-77
2023/01/29 04:35:16;;;;;;;;;;;;;;;-5.17;100.00;102704.44;4947801;28;20038;-77
2023/01/29 04:38:29;;;;;;;83.95;28.60;;;;;;;-5.17;100.00;102693.47;4953949;28;20358;-77
2023/01/29 04:41:14;;;;;;;93.97;32.28;;;;;;;-5.20;100.00;102688.41;4944644;28;20047;-77
2023/01/29 04:44:11;;;;;;;86.15;30.10;;;;;;;-5.22;100.00;102695.19;4956501;28;20580;-77
2023/01/29 04:46:47;;;;;;;89.30;30.58;;;;;;;-5.24;100.00;102705.31;4944391;28;20043;-77
2023/01/29 04:49:43;;;;;;;93.88;31.42;;;;;;;-5.26;100.00;102704.47;4951538;28;20051;-77
2023/01/29 04:52:27;;;;;;;91.60;31.42;;;;;;;-5.28;100.00;102704.47;4949054;28;20043;-77
2023/01/29 04:55:14;;;;;;;89.68;31.13;;;;;;;-5.28;100.00;102689.28;4945107;28;20039;-75
2023/01/29 04:57:59;;;;;;;92.10;31.38;;;;;;;-5.26;100.00;102691.00;4945416;28;20122;-77
2023/01/29 05:00:33;;;;;;;99.25;33.80;;;;;;;-5.26;100.00;102680.88;4946635;28;20031;-76
2023/01/29 05:03:00;;;;;;;96.38;33.65;;;;;;;-5.28;100.00;102681.72;4940082;28;20073;-77
2023/01/29 05:05:27;;;;;;;97.25;32.33;;;;;;;-5.28;100.00;102680.88;4947253;28;20499;-77
2023/01/29 05:07:54;;;;;;;91.00;33.55;;;;;;;-5.29;100.00;102685.09;4952144;28;20034;-76
2023/01/29 05:10:23;;;;;;;94.22;32.65;;;;;;;-5.29;100.00;102686.81;4944607;28;20098;-76
2023/01/29 05:12:58;;;;;;;86.35;30.38;;;;;;;-5.29;100.00;102681.75;4943939;28;20050;-77
2023/01/29 05:15:31;;;;;;;96.13;32.65;;;;;;;-5.27;100.00;102685.09;4946892;28;20039;-76
2023/01/29 05:18:00;;;;;;;89.40;32.80;;;;;;;-5.18;100.00;102684.19;4943277;28;20039;-77
2023/01/29 05:20:26;;;;;;;95.10;31.52;;;;;;;-5.17;100.00;102678.28;4943415;28;20382;-77
2023/01/29 05:22:52;;;;;;;85.90;31.38;;;;;;;-5.20;100.00;102678.31;4947187;28;20106;-77
2023/01/29 05:25:22;;;;;;;96.40;31.30;;;;;;;-5.20;100.00;102668.19;4942694;28;20035;-76
2023/01/29 05:28:06;;;;;;;92.63;31.23;;;;;;;-5.17;100.00;102675.75;4942049;28;20039;-76
2023/01/29 05:30:34;;;;;;;101.07;33.20;;;;;;;-5.10;100.00;102667.28;4943239;28;20073;-75
2023/01/29 05:33:00;;;;;;;94.25;31.15;;;;;;;-5.10;100.00;102667.28;4941430;28;20046;-76
2023/01/29 05:35:27;;;;;;;105.50;33.97;;;;;;;-5.05;100.00;102657.13;4952163;28;20026;-77
2023/01/29 05:37:54;;;;;;;103.72;36.03;;;;;;;-5.00;100.00;102663.00;4945584;28;20040;-77
2023/01/29 05:40:19;;;;;;;106.15;35.13;;;;;;;-4.98;100.00;102664.66;4940733;28;20035;-77
2023/01/29 05:42:45;;;;;;;102.22;34.50;;;;;;;-5.00;100.00;102650.34;4946783;28;20050;-77
2023/01/29 05:45:10;;;;;;;102.55;34.03;;;;;;;-4.99;100.00;102650.34;4951644;28;20039;-77
2023/01/29 05:47:36;;;;;;;116.88;37.25;;;;;;;-4.92;100.00;102648.59;4948681;28;20043;-76
2023/01/29 05:50:01;;;;;;;109.05;35.22;;;;;;;-4.83;100.00;102650.22;4947398;28;20058;-77
2023/01/29 05:52:27;;;;;;;112.95;37.10;;;;;;;-4.76;100.00;102651.88;4922573;28;20043;-77
2023/01/29 05:54:52;;;;;;;110.20;36.03;;;;;;;-4.72;100.00;102661.94;4944024;28;20032;-76
2023/01/29 05:57:17;;;;;;;122.03;38.03;;;;;;;-4.68;100.00;102656.88;4928185;28;20046;-77
2023/01/29 05:59:43;;;;;;;118.57;37.63;;;;;;;-4.60;100.00;102667.75;4937285;28;20552;-77
2023/01/29 06:02:08;;;;;;;116.00;37.50;;;;;;;-4.56;100.00;102671.94;4950193;28;20041;-76
2023/01/29 06:04:34;;;;;;;112.05;35.67;;;;;;;-4.54;100.00;102667.72;4947689;28;20032;-75
2023/01/29 06:07:02;;;;;;;109.72;35.50;;;;;;;-4.51;100.00;102676.13;4945973;28;20489;-77
2023/01/29 06:09:27;;;;;;;113.90;35.65;;;;;;;-4.52;100.00;102678.66;4947518;28;20047;-77
2023/01/29 06:11:53;;;;;;;116.75;36.78;;;;;;;-4.37;100.00;102685.28;4952977;28;20448;-76
2023/01/29 06:14:18;;;;;;;117.88;37.25;;;;;;;-4.41;100.00;102686.19;4952424;28;20700;-77
2023/01/29 06:16:44;;;;;;;115.20;37.67;;;;;;;-4.35;100.00;102684.44;4932242;28;20027;-77
2023/01/29 06:19:09;;;;;;;121.72;37.60;;;;;;;-4.23;100.00;102685.19;4948759;28;20039;-76
2023/01/29 06:21:35;;;;;;;113.75;36.03;;;;;;;-4.17;100.00;102698.63;4951466;28;20035;-76
2023/01/29 06:24:00;;;;;;;114.03;36.58;;;;;;;-4.16;100.00;102695.25;4948380;28;20070;-77
2023/01/29 06:26:26;;;;;;;120.57;39.83;;;;;;;-4.14;100.00;102712.97;4944906;28;20023;-77
2023/01/29 06:28:51;;;;;;;106.63;35.38;;;;;;;-4.17;100.00;102713.81;4941343;28;20039;-77
2023/01/29 06:31:17;;;;;;;119.65;40.42;;;;;;;-4.14;100.00;102713.81;4952053;28;20043;-77
2023/01/29 06:33:43;;;;;;;121.60;37.88;;;;;;;-4.09;100.00;102707.84;4949930;28;20037;-76
2023/01/29 06:36:09;;;;;;;122.97;38.55;;;;;;;-4.07;100.00;102711.19;4947800;28;20035;-76
2023/01/29 06:38:34;;;;;;;120.80;37.92;;;;;;;-4.05;100.00;102707.81;4948443;28;20106;-76
2023/01/29 06:41:08;;;;;;;123.53;39.60;;;;;;;-3.96;100.00;102714.47;4956091;28;20035;-76
2023/01/29 06:43:33;;;;;;;116.30;39.47;;;;;;;-3.96;100.00;102727.16;4954455;28;20047;-77
2023/01/29 06:45:59;;;;;;;121.90;38.20;;;;;;;-3.81;100.00;102716.84;4948848;28;20503;-76
2023/01/29 06:48:24;;;;;;;122.30;38.47;;;;;;;-3.74;100.00;102718.47;4949083;28;20031;-76
2023/01/29 06:50:50;;;;;;;119.85;38.40;;;;;;;-3.73;100.00;102717.63;4943713;28;20027;-77
2023/01/29 06:53:19;;;;;;;122.50;39.63;;;;;;;-3.72;100.00;102701.53;4928805;28;20373;-76
2023/01/29 06:55:51;;;;;;;122.15;40.53;;;;;;;-3.69;100.00;102697.28;4949503;28;20089;-77
2023/01/29 06:58:17;;;;;;;122.70;38.23;;;;;;;-3.65;100.00;102682.03;4949526;28;20040;-76
2023/01/29 07:00:42;;;;;;;113.65;37.42;;;;;;;-3.63;100.00;102667.63;4947672;28;20507;-76
2023/01/29 07:03:09;;;;;;;124.70;38.95;;;;;;;-3.63;100.00;102669.34;4931289;28;20938;-76
2023/01/29 07:05:34;;;;;;;113.43;36.83;;;;;;;-3.56;100.00;102670.91;4949757;28;20031;-76
2023/01/29 07:08:00;;;;;;;137.18;40.17;;;;;;;-3.52;100.00;102670.03;4955100;28;20539;-77
2023/01/29 07:10:25;;;;;;;139.85;43.03;;;;;;;-3.52;100.00;102683.56;4948022;28;20038;-76
2023/01/29 07:12:51;;;;;;;117.25;38.72;;;;;;;-3.54;100.00;102684.44;4958286;28;20480;-76
2023/01/29 07:15:19;;;;;;;128.88;42.88;;;;;;;-3.55;100.00;102687.81;4968791;28;20038;-77
2023/01/29 07:18:01;;;;;;;119.05;39.60;;;;;;;-3.50;100.00;102678.47;4960644;28;20118;-76
2023/01/29 07:20:28;;;;;;;119.73;38.40;;;;;;;-3.46;100.00;102685.16;4946184;28;20045;-76
2023/01/29 07:22:55;;;;;;;132.13;42.85;;;;;;;-3.49;100.00;102679.28;4949898;28;20046;-76
2023/01/29 07:25:21;;;;;;;107.65;36.92;;;;;;;-3.36;100.00;102675.75;4959873;28;20039;-76
2023/01/29 07:27:46;;;;;;;116.05;38.10;;;;;;;-3.29;100.00;102671.44;4949275;28;20067;-77
2023/01/29 07:30:12;;;;;;;112.28;38.20;;;;;;;-3.28;100.00;102673.09;4946863;28;20167;-76
2023/01/29 07:32:38;;;;;;;113.15;38.03;;;;;;;-3.24;100.00;102672.19;4950340;28;20093;-77
2023/01/29 07:35:04;;;;;;;113.13;38.65;;;;;;;-3.14;100.00;102673.75;4950474;28;20039;-75
2023/01/29 07:37:29;;;;;;;109.57;37.25;;;;;;;-3.20;100.00;102668.75;4943241;28;20152;-76
2023/01/29 07:39:55;;;;;;;117.35;38.00;;;;;;;-3.07;100.00;102660.13;4941726;28;20056;-76
2023/01/29 07:42:20;;;;;;;100.88;35.72;;;;;;;-3.07;100.00;102657.59;4942437;28;20032;-77
2023/01/29 07:44:46;;;;;;;106.13;37.88;;;;;;;-2.97;100.00;102654.03;4944818;28;20972;-76
2023/01/29 07:47:11;;;;;;;112.45;38.35;;;;;;;-2.84;100.00;102661.47;4950291;28;20034;-76
2023/01/29 07:49:37;;;;;;;103.20;35.63;;;;;;;-2.91;100.00;102663.25;4945192;28;20027;-76
2023/01/29 07:52:02;;;;;;;95.15;34.45;;;;;;;-2.98;100.00;102662.50;4947429;28;20035;-77
2023/01/29 07:54:27;;;;;;;105.88;36.70;;;;;;;-3.01;100.00;102664.28;4946701;28;20412;-77
2023/01/29 07:56:53;;;;;;;105.75;36.88;;;;;;;-2.88;100.00;102665.75;4943918;28;20511;-76
2023/01/29 07:59:18;;;;;;;102.68;35.97;;;;;;;-2.89;100.00;102663.22;4947033;28;20491;-76
2023/01/29 08:01:44;;;;;;;104.43;37.67;;;;;;;-2.78;100.00;102656.28;4944573;28;20047;-76
2023/01/29 08:04:09;;;;;;;103.97;35.85;;;;;;;-2.80;100.00;102658.84;4954295;28;20040;-76
2023/01/29 08:06:35;;;;;;;101.50;35.85;;;;;;;-2.84;100.00;102661.47;4954647;28;20035;-77
2023/01/29 08:09:01;;;;;;;99.78;35.00;;;;;;;-2.81;100.00;102651.25;4944257;28;20957;-76
2023/01/29 08:11:26;;;;;;;107.38;36.88;;;;;;;-2.73;100.00;102657.06;4946192;28;20023;-76
2023/01/29 08:13:51;;;;;;;99.72;34.15;;;;;;;-2.63;100.00;102673.00;4950955;28;20085;-76
2023/01/29 08:16:17;;;;;;;107.68;36.53;;;;;;;-2.49;100.00;102670.22;4950492;28;20102;-76
2023/01/29 08:18:46;;;;;;;99.13;36.35;;;;;;;-2.59;100.00;102664.44;4957445;28;20039;-76
2023/01/29 08:21:12;;;;;;;102.60;37.65;;;;;;;-2.63;100.00;102667.91;4947720;28;20032;-76
2023/01/29 08:23:37;;;;;;;99.47;36.28;;;;;;;-2.55;100.00;102679.59;4949938;28;20094;-76
2023/01/29 08:26:03;;;;;;;101.30;37.72;;;;;;;-2.50;100.00;102681.25;4940227;28;20040;-76
2023/01/29 08:28:29;;;;;;;105.95;36.55;;;;;;;-2.47;100.00;102673.56;4930288;28;20036;-76
2023/01/29 08:30:54;;;;;;;108.80;36.38;;;;;;;-2.51;100.00;102679.56;4947861;28;20552;-76
2023/01/29 08:33:20;;;;;;;97.88;36.65;;;;;;;-2.37;100.00;102670.84;4943534;28;20042;-76
2023/01/29 08:35:49;;;;;;;104.30;34.85;;;;;;;-2.31;100.00;102667.34;4942077;28;20643;-76
2023/01/29 08:38:15;;;;;;;94.30;33.67;;;;;;;-2.33;100.00;102671.63;4933000;28;20105;-76
2023/01/29 08:40:41;;;;;;;99.13;35.42;;;;;;;-2.21;100.00;102662.94;4944265;28;20035;-75
2023/01/29 08:43:07;;;;;;;101.93;35.88;;;;;;;-2.23;100.00;102652.78;4943161;28;20401;-74
2023/01/29 08:45:34;;;;;;;98.25;36.40;;;;;;;-2.23;100.00;102647.72;4945339;28;20035;-74
2023/01/29 08:48:00;;;;;;;98.57;33.97;;;;;;;-2.18;100.00;102648.47;4938505;28;20043;-76
2023/01/29 08:50:25;;;;;;;95.25;33.45;;;;;;;-2.05;100.00;102638.09;4941258;28;20030;-75
2023/01/29 08:52:56;;;;;;;98.10;36.17;;;;;;;-2.00;100.00;102632.03;4927829;28;20539;-75
2023/01/29 08:55:22;;;;;;;98.70;34.22;;;;;;;-1.98;100.00;102626.91;4944274;28;20496;-75
2023/01/29 08:57:47;;;;;;;106.00;36.65;;;;;;;-1.89;100.00;102629.25;4943946;28;20087;-75
2023/01/29 09:00:13;;;;;;;98.07;35.92;;;;;;;-1.91;100.00;102631.00;4947304;28;20039;-74
2023/01/29 09:02:39;;;;;;;101.25;34.58;;;;;;;-1.79;100.00;102638.41;4940555;28;20035;-75
2023/01/29 09:05:05;;;;;;;103.45;37.38;;;;;;;-1.89;100.00;102643.69;4942015;28;20436;-76
2023/01/29 09:07:30;;;;;;;95.00;33.65;;;;;;;-1.83;100.00;102635.94;4938931;28;20123;-75
2023/01/29 09:09:56;;;;;;;93.45;34.22;;;;;;;-1.73;100.00;102628.94;4939527;28;20038;-75
2023/01/29 09:12:22;;;;;;;94.55;34.47;;;;;;;-1.68;100.00;102622.06;4948643;28;20148;-75
2023/01/29 09:14:47;;;;;;;96.45;34.80;;;;;;;-1.69;100.00;102616.16;4979311;28;20052;-74
2023/01/29 09:17:13;;;;;;;98.43;35.20;;;;;;;-1.65;100.00;102624.56;4953058;28;20382;-75
2023/01/29 09:19:38;;;;;;;109.57;38.85;;;;;;;-1.57;100.00;102615.88;4940424;28;20401;-75
2023/01/29 09:22:03;;;;;;;96.90;34.95;;;;;;;-1.49;100.00;102615.69;4944683;28;20031;-74
2023/01/29 09:24:29;;;;;;;95.55;34.78;;;;;;;-1.50;100.00;102615.75;4944161;28;20484;-75
2023/01/29 09:26:54;;;;;;;123.10;40.50;;;;;;;-1.49;100.00;102604.69;4922114;28;20473;-76
2023/01/29 09:29:20;;;;;;;113.38;39.40;;;;;;;-1.45;100.00;102609.69;4945109;28;20031;-75
2023/01/29 09:31:45;;;;;;;91.05;32.67;;;;;;;-1.45;100.00;102617.34;4942475;28;20034;-76
2023/01/29 09:34:11;;;;;;;95.45;35.38;;;;;;;-1.43;100.00;102607.09;4943869;28;20024;-76
2023/01/29 09:36:36;;;;;;;96.10;34.40;;;;;;;-1.38;100.00;102605.28;4948113;28;20031;-75
2023/01/29 09:39:02;;;;;;;93.63;33.20;;;;;;;-1.26;100.00;102607.56;4953108;28;20099;-75
2023/01/29 09:41:51;;;;;;;84.50;31.42;;;;;;;-1.27;100.00;102600.78;4944712;28;20118;-74
2023/01/29 09:44:29;;;;;;;94.05;34.30;;;;;;;-1.29;100.00;102605.09;4965234;28;20078;-75
2023/01/29 09:46:55;;;;;;;92.22;33.83;;;;;;;-1.28;100.00;102598.28;4954975;28;20035;-74
2023/01/29 09:49:30;;;;;;;90.70;32.63;;;;;;;-1.28;99.84;102605.91;4954103;28;20075;-75
2023/01/29 09:52:16;;;;;;;85.75;32.00;;;;;;;-1.16;99.00;102595.47;4946955;28;20118;-74
2023/01/29 09:55:08;;;;;;;91.78;34.42;;;;;;;-1.13;99.42;102587.75;4946638;28;20106;-76
2023/01/29 09:58:05;;;;;;;89.05;33.08;;;;;;;-1.05;99.46;102582.47;4948102;28;20032;-76
2023/01/29 10:00:45;;;;;;;90.05;33.17;;;;;;;-1.05;99.06;102588.41;4948702;28;20039;-75
2023/01/29 10:03:30;;;;;;;107.35;37.13;;;;;;;-0.94;98.53;102590.69;4946708;28;20408;-77
2023/01/29 10:06:08;;;;;;;111.78;44.88;;;;;;;-0.77;98.55;102586.88;4948522;28;20110;-76
2023/01/29 10:08:55;;;;;;;89.95;35.25;;;;;;;-0.81;97.77;102583.56;4946583;28;20031;-75
2023/01/29 10:11:37;;;;;;;88.82;32.33;;;;;;;-0.96;98.53;102578.84;4950651;28;20102;-76
2023/01/29 10:14:36;;;;;;;82.85;32.38;;;;;;;-0.88;98.34;102584.63;4951778;28;20473;-77
2023/01/29 10:17:08;;;;;;;91.40;32.58;;;;;;;-0.85;98.37;102589.63;4946138;28;20039;-76
2023/01/29 10:20:03;;;;;;;85.97;31.20;;;;;;;-0.75;97.81;102595.31;4950897;28;20039;-77
2023/01/29 10:22:36;;;;;;;84.20;32.45;;;;;;;-0.85;98.64;102597.25;4940267;28;20043;-77
2023/01/29 10:25:10;;;;;;;82.75;32.15;;;;;;;-0.75;98.30;102605.50;4938410;28;20035;-76
2023/01/29 10:27:39;;;;;;;81.97;32.50;;;;;;;-0.76;97.98;102609.75;4955973;28;20036;-76
2023/01/29 10:30:39;;;;;;;83.60;32.50;;;;;;;-0.76;97.96;102604.66;4933534;28;20396;-76
2023/01/29 10:33:11;;;;;;;76.68;30.40;;;;;;;-0.60;97.42;102597.50;4957069;28;20378;-77
2023/01/29 10:35:48;;;;;;;81.10;31.67;;;;;;;-0.59;97.52;102594.88;4937164;28;20113;-76
2023/01/29 10:38:26;;;;;;;73.93;30.60;;;;;;;-0.62;96.82;102591.59;4952048;28;20561;-77
2023/01/29 10:41:24;;;;;;;79.10;29.33;;;;;;;-0.66;97.23;102583.19;4944713;28;20048;-76
2023/01/29 10:44:15;;;;;;;85.05;30.95;;;;;;;-0.55;97.08;102576.97;4944332;28;20119;-77
2023/01/29 10:47:10;;;;;;;85.65;32.40;;;;;;;-0.44;95.37;102569.88;4974853;28;20047;-76
2023/01/29 10:49:53;;;;;;;82.38;31.08;;;;;;;-0.49;95.29;102576.78;4941867;28;20392;-76
2023/01/29 10:52:39;;;;;;;78.32;30.33;;;;;;;-0.53;95.69;102565.00;4967258;28;20058;-77
2023/01/29 10:55:04;;;;;;;82.72;30.80;;;;;;;-0.46;96.36;102563.97;4961033;28;20046;-76
2023/01/29 10:57:57;;;;;;;77.88;29.98;;;;;;;-0.45;96.40;102548.66;4952043;28;20185;-76
2023/01/29 11:00:32;;;;;;;81.63;29.15;;;;;;;-0.25;95.91;102552.34;4963572;28;20037;-76
2023/01/29 11:03:12;;;;;;;76.68;29.25;;;;;;;-0.31;95.32;102550.81;4967026;28;20039;-76
2023/01/29 11:05:47;;;;;;;78.30;30.92;;;;;;;-0.26;95.66;102554.06;4969456;28;20047;-76
2023/01/29 11:08:16;;;;;;;75.30;27.65;;;;;;;-0.28;94.91;102549.91;4970312;28;20493;-76
2023/01/29 11:11:03;;;;;;;76.88;30.00;;;;;;;-0.34;95.09;102540.72;4972335;28;20109;-75
2023/01/29 11:13:33;;;;;;;71.55;27.90;;;;;;;-0.26;95.67;102537.94;4966434;28;20098;-76
2023/01/29 11:15:59;;;;;;;70.10;29.50;;;;;;;-0.05;94.80;102528.84;4967055;28;20051;-76
2023/01/29 11:18:25;;;;;;;72.85;27.58;;;;;;;-0.12;94.49;102532.44;4972402;28;20038;-77
2023/01/29 11:21:01;;;;;;;71.20;27.88;;;;;;;-0.11;94.29;102517.09;4962394;28;20031;-75
2023/01/29 11:23:30;;;;;;;72.03;26.95;;;;;;;-0.12;93.77;102524.78;4964306;28;20119;-76
2023/01/29 11:25:57;;;;;;;66.20;26.85;;;;;;;-0.11;94.64;102524.75;4959837;28;20043;-75
2023/01/29 11:28:54;;;;;;;71.72;27.40;;;;;;;-0.07;94.79;102515.31;4969801;28;20488;-76
2023/01/29 11:31:34;;;;;;;75.38;28.38;;;;;;;0.02;94.72;102511.63;4969290;28;20428;-76
2023/01/29 11:34:21;;;;;;;74.97;28.65;;;;;;;0.05;94.32;102506.44;4970244;28;20085;-75
2023/01/29 11:36:59;;;;;;;73.13;28.10;;;;;;;0.07;94.29;102502.13;4962578;28;20038;-76
2023/01/29 11:39:26;;;;;;;71.85;28.67;;;;;;;0.11;94.48;102507.06;4965206;28;20452;-76
2023/01/29 11:41:57;;;;;;;70.65;28.98;;;;;;;0.11;93.24;102498.59;4969738;28;20022;-75
2023/01/29 11:44:35;;;;;;;75.15;29.27;;;;;;;0.17;93.43;102493.28;4966408;28;20031;-76
2023/01/29 11:47:13;;;;;;;71.63;29.13;;;;;;;0.30;92.42;102486.97;4964954;28;20122;-76